Time;durP1;ratioP1;P1;durP2;ratioP2;P2;SDS_P1;SDS_P2;PMS_P1;PMS_P2;Temp;Humidity;BMP_temperature;BMP_pressure;BME280_temperature;BME280_humidity;BME280_pressure;Samples;Min_cycle;Max_cycle;Signal;HPM_P1;HPM_P2
2024/03/15 00:00:50;;;;;;;78.90;34.00;;;;;;;;;;108767;1250;59439;-82
2024/03/15 00:03:33;;;;;;;78.70;33.20;;;;;;;;;;106640;1254;61450;-77
2024/03/15 00:06:00;;;;;;;80.40;36.30;;;;;;;;;;106585;1250;61264;-79
2024/03/15 00:08:26;;;;;;;92.10;34.10;;;;;;;;;;106708;1249;61150;-79
2024/03/15 00:10:53;;;;;;;64.90;31.50;;;;;;;;;;106794;1249;61325;-79
2024/03/15 00:13:20;;;;;;;60.20;29.90;;;;;;;;;;106606;1250;61305;-79
2024/03/15 00:15:46;;;;;;;64.30;31.20;;;;;;;;;;107121;1250;61257;-84
2024/03/15 00:18:12;;;;;;;63.10;31.20;;;;;;;;;;107246;1251;61332;-83
2024/03/15 00:20:39;;;;;;;60.20;30.60;;;;;;;;;;107799;1249;59639;-79
2024/03/15 00:23:07;;;;;;;72.40;37.10;;;;;;;;;;107385;1253;61222;-79
2024/03/15 00:25:34;;;;;;;70.10;36.10;;;;;;;;;;106801;1250;61926;-79
2024/03/15 00:28:02;;;;;;;81.30;39.00;;;;;;;;;;106721;1253;61220;-83
2024/03/15 00:30:28;;;;;;;76.90;38.30;;;;;;;;;;107171;1250;61283;-80
2024/03/15 00:32:54;;;;;;;83.80;40.20;;;;;;;;;;107155;1250;61371;-79
2024/03/15 00:35:20;;;;;;;98.10;45.10;;;;;;;;;;106576;1251;61276;-79
2024/03/15 00:37:47;;;;;;;87.30;39.10;;;;;;;;;;107165;1253;61310;-83
2024/03/15 00:40:13;;;;;;;91.80;42.60;;;;;;;;;;107125;1254;61443;-80
2024/03/15 00:42:40;;;;;;;89.70;40.70;;;;;;;;;;107115;1251;61276;-83
2024/03/15 00:45:06;;;;;;;107.10;46.10;;;;;;;;;;107130;1252;61363;-79
2024/03/15 00:47:33;;;;;;;107.50;49.90;;;;;;;;;;107116;1251;61394;-84
2024/03/15 00:49:59;;;;;;;93.40;41.90;;;;;;;;;;107144;1251;61362;-81
2024/03/15 00:52:26;;;;;;;79.10;38.60;;;;;;;;;;107120;1251;61147;-83
2024/03/15 00:54:52;;;;;;;92.70;43.20;;;;;;;;;;106540;1250;61418;-79
2024/03/15 00:57:18;;;;;;;100.30;42.20;;;;;;;;;;107150;1254;61350;-84
2024/03/15 00:59:45;;;;;;;85.50;42.70;;;;;;;;;;107117;1250;61461;-83
2024/03/15 01:02:11;;;;;;;83.70;40.30;;;;;;;;;;107166;1251;61235;-79
2024/03/15 01:04:38;;;;;;;87.50;42.70;;;;;;;;;;107117;1250;61335;-79
2024/03/15 01:07:05;;;;;;;90.60;37.80;;;;;;;;;;106547;1251;61363;-79
2024/03/15 01:09:31;;;;;;;80.80;39.20;;;;;;;;;;109111;1250;58931;-84
2024/03/15 01:11:57;;;;;;;86.20;37.60;;;;;;;;;;109645;1250;59008;-83
2024/03/15 01:14:24;;;;;;;85.90;39.40;;;;;;;;;;109687;1249;58791;-80
2024/03/15 01:16:51;;;;;;;81.20;38.50;;;;;;;;;;109003;1249;59157;-79
2024/03/15 01:19:18;;;;;;;66.60;31.30;;;;;;;;;;106545;1251;61346;-83
2024/03/15 01:21:44;;;;;;;76.20;35.80;;;;;;;;;;107124;1251;61337;-79
2024/03/15 01:24:12;;;;;;;80.40;37.20;;;;;;;;;;106595;1250;61104;-83
2024/03/15 01:26:39;;;;;;;80.90;38.40;;;;;;;;;;107185;1253;61274;-83
2024/03/15 01:29:05;;;;;;;78.80;38.80;;;;;;;;;;107168;1250;61140;-79
2024/03/15 01:31:31;;;;;;;78.90;38.20;;;;;;;;;;107217;1250;61386;-83
2024/03/15 01:33:57;;;;;;;74.90;38.30;;;;;;;;;;107088;1251;61300;-79
2024/03/15 01:36:24;;;;;;;94.30;41.50;;;;;;;;;;107960;1249;61376;-83
2024/03/15 01:38:50;;;;;;;74.70;32.50;;;;;;;;;;109565;1250;59365;-79
2024/03/15 01:41:16;;;;;;;81.50;41.20;;;;;;;;;;109657;1250;58888;-80
2024/03/15 01:43:46;;;;;;;74.00;38.60;;;;;;;;;;107082;1250;59143;-83
2024/03/15 01:46:12;;;;;;;79.80;35.80;;;;;;;;;;107152;1253;61209;-79
2024/03/15 01:48:40;;;;;;;89.30;38.70;;;;;;;;;;107111;1249;59190;-83
2024/03/15 01:51:06;;;;;;;77.30;34.10;;;;;;;;;;107090;1255;61895;-79
2024/03/15 01:53:33;;;;;;;82.60;42.80;;;;;;;;;;107182;1249;62374;-79
2024/03/15 01:56:00;;;;;;;76.30;31.40;;;;;;;;;;107115;1250;61087;-83
2024/03/15 01:58:26;;;;;;;80.80;35.20;;;;;;;;;;107146;1250;61165;-78
2024/03/15 02:00:55;;;;;;;98.30;41.10;;;;;;;;;;106587;1251;61245;-79
2024/03/15 02:03:23;;;;;;;74.40;36.20;;;;;;;;;;107246;1250;61906;-78
2024/03/15 02:05:50;;;;;;;74.20;35.10;;;;;;;;;;106586;1249;61287;-78
2024/03/15 02:08:17;;;;;;;76.80;38.50;;;;;;;;;;106566;1250;61271;-78
2024/03/15 02:10:44;;;;;;;77.90;36.30;;;;;;;;;;106569;1250;61288;-79
2024/03/15 02:13:10;;;;;;;76.40;35.70;;;;;;;;;;106673;1253;61242;-78
2024/03/15 02:15:37;;;;;;;71.90;33.10;;;;;;;;;;106630;1254;61230;-78
2024/03/15 02:18:03;;;;;;;71.30;30.00;;;;;;;;;;107210;1250;59273;-78
2024/03/15 02:20:29;;;;;;;59.50;28.80;;;;;;;;;;106621;1250;61261;-83
2024/03/15 02:22:58;;;;;;;70.20;32.20;;;;;;;;;;107260;1250;61271;-83
2024/03/15 02:25:24;;;;;;;64.40;30.80;;;;;;;;;;107276;1254;59832;-84
2024/03/15 02:27:50;;;;;;;67.80;34.00;;;;;;;;;;107143;1250;61351;-83
2024/03/15 02:30:17;;;;;;;77.00;33.70;;;;;;;;;;107138;1250;61280;-78
2024/03/15 02:32:43;;;;;;;62.40;29.70;;;;;;;;;;106590;1250;61843;-83
2024/03/15 02:35:09;;;;;;;61.30;27.40;;;;;;;;;;107171;1253;60915;-78
2024/03/15 02:37:38;;;;;;;64.00;30.20;;;;;;;;;;106575;1250;59297;-78
2024/03/15 02:40:09;;;;;;;62.70;28.90;;;;;;;;;;106594;1250;61264;-82
2024/03/15 02:42:36;;;;;;;62.70;29.40;;;;;;;;;;106555;1253;61194;-82
2024/03/15 02:45:04;;;;;;;62.30;33.60;;;;;;;;;;106586;1250;61376;-78
2024/03/15 02:47:31;;;;;;;71.10;31.90;;;;;;;;;;106596;1253;61341;-82
2024/03/15 02:49:57;;;;;;;74.00;31.90;;;;;;;;;;107171;1250;61308;-79
2024/03/15 02:52:24;;;;;;;66.40;33.30;;;;;;;;;;106545;1250;61287;-82
2024/03/15 02:54:50;;;;;;;63.80;28.00;;;;;;;;;;107152;1250;61142;-83
2024/03/15 02:57:16;;;;;;;66.40;27.40;;;;;;;;;;107124;1250;61440;-79
2024/03/15 02:59:44;;;;;;;54.30;28.40;;;;;;;;;;106574;1254;61201;-79
2024/03/15 03:02:10;;;;;;;55.10;25.30;;;;;;;;;;106587;1249;61186;-78
2024/03/15 03:04:36;;;;;;;58.40;29.20;;;;;;;;;;107131;1250;61289;-79
2024/03/15 03:07:03;;;;;;;53.10;26.70;;;;;;;;;;106559;1250;61218;-80
2024/03/15 03:09:31;;;;;;;54.70;27.20;;;;;;;;;;106551;1251;61248;-78
2024/03/15 03:11:57;;;;;;;47.80;25.60;;;;;;;;;;106561;1250;61184;-82
2024/03/15 03:14:24;;;;;;;57.90;27.30;;;;;;;;;;107227;1251;61351;-83
2024/03/15 03:16:50;;;;;;;56.70;24.40;;;;;;;;;;107193;1250;61281;-79
2024/03/15 03:19:17;;;;;;;54.40;26.60;;;;;;;;;;107219;1253;61370;-79
2024/03/15 03:21:45;;;;;;;55.30;26.90;;;;;;;;;;109459;1249;59786;-82
2024/03/15 03:24:12;;;;;;;61.30;30.00;;;;;;;;;;107200;1250;61172;-79
2024/03/15 03:26:38;;;;;;;67.00;32.70;;;;;;;;;;106540;1250;61169;-83
2024/03/15 03:29:06;;;;;;;73.60;33.00;;;;;;;;;;107170;1251;61276;-82
2024/03/15 03:31:32;;;;;;;62.70;32.70;;;;;;;;;;107168;1250;61229;-83
2024/03/15 03:33:59;;;;;;;77.60;36.90;;;;;;;;;;107150;1250;61264;-82
2024/03/15 03:36:26;;;;;;;73.00;32.60;;;;;;;;;;107029;1250;61330;-82
2024/03/15 03:38:53;;;;;;;71.70;34.40;;;;;;;;;;107181;1250;61251;-83
2024/03/15 03:41:19;;;;;;;65.50;32.20;;;;;;;;;;107136;1250;61919;-79
2024/03/15 03:43:45;;;;;;;56.30;27.00;;;;;;;;;;106566;1254;61165;-78
2024/03/15 03:46:16;;;;;;;55.80;26.90;;;;;;;;;;106508;1254;62223;-78
2024/03/15 03:48:43;;;;;;;60.30;29.80;;;;;;;;;;106491;1251;62513;-78
2024/03/15 03:51:09;;;;;;;53.20;25.80;;;;;;;;;;106542;1250;61224;-82
2024/03/15 03:53:36;;;;;;;57.50;26.80;;;;;;;;;;107111;1255;61338;-83
2024/03/15 03:56:02;;;;;;;60.30;27.50;;;;;;;;;;107156;1250;61113;-78
2024/03/15 03:58:28;;;;;;;61.20;29.70;;;;;;;;;;106591;1251;62055;-81
2024/03/15 04:00:55;;;;;;;60.80;29.20;;;;;;;;;;107148;1250;60806;-78
2024/03/15 04:03:21;;;;;;;63.10;27.10;;;;;;;;;;106552;1250;61281;-78
2024/03/15 04:05:47;;;;;;;67.80;30.00;;;;;;;;;;106533;1253;61220;-78
2024/03/15 04:08:15;;;;;;;57.40;24.40;;;;;;;;;;106578;1250;61251;-82
2024/03/15 04:10:42;;;;;;;61.60;31.20;;;;;;;;;;106485;1254;61339;-82
2024/03/15 04:13:08;;;;;;;61.00;26.30;;;;;;;;;;106539;1255;61924;-78
2024/03/15 04:15:35;;;;;;;61.50;29.30;;;;;;;;;;106569;1251;61249;-82
2024/03/15 04:18:02;;;;;;;56.80;27.50;;;;;;;;;;107168;1249;62087;-83
2024/03/15 04:20:29;;;;;;;57.40;26.90;;;;;;;;;;107116;1255;61087;-82
2024/03/15 04:22:56;;;;;;;63.00;30.50;;;;;;;;;;107192;1255;61353;-82
2024/03/15 04:25:23;;;;;;;55.50;29.80;;;;;;;;;;107149;1251;61283;-78
2024/03/15 04:27:51;;;;;;;63.00;31.50;;;;;;;;;;106587;1250;61277;-79
2024/03/15 04:30:18;;;;;;;59.70;29.50;;;;;;;;;;106584;1250;61933;-79
2024/03/15 04:32:46;;;;;;;59.40;28.50;;;;;;;;;;106875;1250;61230;-79
2024/03/15 04:35:18;;;;;;;58.80;27.10;;;;;;;;;;109650;1250;59374;-79
2024/03/15 04:37:45;;;;;;;56.90;25.80;;;;;;;;;;109702;1250;59043;-80
2024/03/15 04:40:13;;;;;;;62.70;30.50;;;;;;;;;;109595;1250;59053;-79
2024/03/15 04:42:39;;;;;;;61.70;27.90;;;;;;;;;;109602;1250;60717;-83
2024/03/15 04:45:09;;;;;;;63.70;30.90;;;;;;;;;;108447;1250;61297;-78
2024/03/15 04:47:38;;;;;;;61.30;28.10;;;;;;;;;;109671;1250;59417;-82
2024/03/15 04:50:04;;;;;;;;;;;;;;;;;;109705;1250;58792;-79
2024/03/15 04:52:30;;;;;;;56.30;26.50;;;;;;;;;;109621;1253;58869;-79
2024/03/15 04:54:57;;;;;;;53.20;26.00;;;;;;;;;;109575;1250;59130;-79
2024/03/15 04:57:25;;;;;;;56.50;25.00;;;;;;;;;;109692;1249;58932;-79
2024/03/15 04:59:52;;;;;;;60.80;30.60;;;;;;;;;;109690;1250;58964;-79
2024/03/15 05:02:19;;;;;;;49.00;22.70;;;;;;;;;;107543;1250;61267;-79
2024/03/15 05:04:46;;;;;;;51.00;23.80;;;;;;;;;;106567;1250;61219;-82
2024/03/15 05:07:12;;;;;;;52.00;25.10;;;;;;;;;;107165;1250;61222;-79
2024/03/15 05:09:38;;;;;;;49.10;22.20;;;;;;;;;;106500;1256;61727;-78
2024/03/15 05:12:05;;;;;;;50.50;25.20;;;;;;;;;;106559;1255;62273;-82
2024/03/15 05:14:32;;;;;;;55.10;24.10;;;;;;;;;;106601;1256;61240;-78
2024/03/15 05:16:58;;;;;;;45.30;22.60;;;;;;;;;;106584;1251;61325;-83
2024/03/15 05:19:26;;;;;;;48.20;24.70;;;;;;;;;;106621;1250;61135;-83
2024/03/15 05:21:52;;;;;;;49.30;23.10;;;;;;;;;;106562;1256;61335;-77
2024/03/15 05:24:18;;;;;;;41.20;22.40;;;;;;;;;;106630;1250;61280;-83
2024/03/15 05:26:47;;;;;;;59.70;25.50;;;;;;;;;;107201;1255;61388;-83
2024/03/15 05:29:14;;;;;;;;;;;;;;;;;;107264;1250;59343;-78
2024/03/15 05:31:41;;;;;;;48.70;24.40;;;;;;;;;;106600;1251;61733;-82
2024/03/15 05:34:08;;;;;;;52.60;24.10;;;;;;;;;;108951;1250;61110;-83
2024/03/15 05:36:34;;;;;;;50.10;21.80;;;;;;;;;;107183;1250;61198;-78
2024/03/15 05:39:01;;;;;;;54.70;23.70;;;;;;;;;;106563;1255;61306;-79
2024/03/15 05:41:28;;;;;;;42.40;22.50;;;;;;;;;;106562;1251;61254;-82
2024/03/15 05:43:54;;;;;;;42.70;22.20;;;;;;;;;;106553;1251;61159;-83
2024/03/15 05:46:20;;;;;;;44.80;20.90;;;;;;;;;;107174;1250;63321;-78
2024/03/15 05:48:47;;;;;;;47.60;22.40;;;;;;;;;;107213;1253;61338;-82
2024/03/15 05:51:13;;;;;;;47.80;22.30;;;;;;;;;;107134;1251;61345;-83
2024/03/15 05:53:40;;;;;;;50.70;23.60;;;;;;;;;;107168;1250;61278;-79
2024/03/15 05:56:06;;;;;;;49.10;25.50;;;;;;;;;;106588;1251;61356;-82
2024/03/15 05:58:32;;;;;;;55.80;23.00;;;;;;;;;;107111;1253;61421;-82
2024/03/15 06:00:59;;;;;;;46.60;24.70;;;;;;;;;;107115;1250;61241;-82
2024/03/15 06:03:25;;;;;;;47.10;24.00;;;;;;;;;;107184;1251;61323;-82
2024/03/15 06:05:51;;;;;;;56.80;24.30;;;;;;;;;;107267;1250;61341;-83
2024/03/15 06:08:18;;;;;;;41.30;22.80;;;;;;;;;;107174;1250;61844;-82
2024/03/15 06:10:44;;;;;;;46.40;22.80;;;;;;;;;;106936;1250;249743;-78
2024/03/15 06:13:10;;;;;;;52.20;25.60;;;;;;;;;;107627;1250;61316;-83
2024/03/15 06:15:39;;;;;;;50.00;26.40;;;;;;;;;;109637;1250;58863;-79
2024/03/15 06:18:06;;;;;;;;;;;;;;;;;;109567;1250;58910;-79
2024/03/15 06:20:32;;;;;;;48.10;24.10;;;;;;;;;;107581;1250;61250;-83
2024/03/15 06:22:58;;;;;;;46.30;23.70;;;;;;;;;;107298;1250;61245;-83
2024/03/15 06:25:25;;;;;;;55.90;27.10;;;;;;;;;;107153;1255;61356;-79
2024/03/15 06:27:51;;;;;;;60.60;28.50;;;;;;;;;;106582;1256;61308;-82
2024/03/15 06:30:18;;;;;;;47.30;26.70;;;;;;;;;;107259;1250;59183;-78
2024/03/15 06:32:46;;;;;;;49.00;26.00;;;;;;;;;;106672;1253;61324;-82
2024/03/15 06:35:19;;;;;;;45.00;23.70;;;;;;;;;;107208;1250;61315;-79
2024/03/15 06:37:45;;;;;;;49.10;25.70;;;;;;;;;;107112;1252;61730;-83
2024/03/15 06:40:30;;;;;;;56.70;29.90;;;;;;;;;;107410;1250;61162;-83
2024/03/15 06:45:52;;;;;;;63.10;29.50;;;;;;;;;;107403;1250;61108;-79
2024/03/15 06:48:22;;;;;;;;;;;;;;;;;;106713;1255;61318;-79
2024/03/15 06:51:00;;;;;;;58.00;28.90;;;;;;;;;;106834;1251;61173;-83
2024/03/15 06:53:26;;;;;;;54.70;30.20;;;;;;;;;;107407;1254;61191;-83
2024/03/15 06:55:54;;;;;;;67.70;32.90;;;;;;;;;;107412;1250;61156;-79
2024/03/15 06:58:21;;;;;;;46.80;23.80;;;;;;;;;;106731;1251;62763;-79
2024/03/15 07:00:50;;;;;;;55.20;27.80;;;;;;;;;;106591;1251;62837;-80
2024/03/15 07:03:18;;;;;;;63.70;31.90;;;;;;;;;;107378;1250;61169;-79
2024/03/15 07:05:44;;;;;;;56.20;31.10;;;;;;;;;;107415;1254;59119;-84
2024/03/15 07:08:14;;;;;;;68.40;31.80;;;;;;;;;;107542;1251;59299;-79
2024/03/15 07:10:41;;;;;;;57.50;31.70;;;;;;;;;;106723;1253;61156;-79
2024/03/15 07:13:09;;;;;;;57.40;32.60;;;;;;;;;;107410;1253;61348;-83
2024/03/15 07:15:36;;;;;;;73.90;38.10;;;;;;;;;;107204;1256;59190;-83
2024/03/15 07:18:04;;;;;;;62.30;37.80;;;;;;;;;;107405;1254;59629;-84
2024/03/15 07:20:32;;;;;;;55.70;30.60;;;;;;;;;;107298;1250;61153;-83
2024/03/15 07:22:58;;;;;;;54.60;30.50;;;;;;;;;;107774;1253;61952;-83
2024/03/15 07:25:24;;;;;;;47.80;29.00;;;;;;;;;;107334;1251;61819;-84
2024/03/15 07:27:56;;;;;;;47.30;27.60;;;;;;;;;;107445;1250;61308;-83
2024/03/15 07:30:23;;;;;;;45.00;28.80;;;;;;;;;;107324;1251;62321;-78
2024/03/15 07:32:51;;;;;;;47.80;29.30;;;;;;;;;;107540;1253;61190;-84
2024/03/15 07:35:18;;;;;;;44.90;29.00;;;;;;;;;;107379;1251;61869;-83
2024/03/15 07:37:46;;;;;;;45.40;28.10;;;;;;;;;;107501;1253;61101;-79
2024/03/15 07:40:14;;;;;;;41.30;29.40;;;;;;;;;;107472;1250;61340;-83
2024/03/15 07:42:45;;;;;;;44.20;26.70;;;;;;;;;;107638;1248;61150;-83
2024/03/15 07:45:11;;;;;;;38.90;26.00;;;;;;;;;;107284;1250;59231;-78
2024/03/15 07:47:38;;;;;;;42.30;29.80;;;;;;;;;;107380;1256;62302;-79
2024/03/15 07:50:06;;;;;;;43.30;26.10;;;;;;;;;;107513;1250;61262;-83
2024/03/15 07:52:32;;;;;;;44.90;27.00;;;;;;;;;;106936;1254;61338;-84
2024/03/15 07:54:58;;;;;;;39.30;24.10;;;;;;;;;;107527;1250;59720;-78
2024/03/15 07:57:25;;;;;;;35.40;24.30;;;;;;;;;;106911;1254;61261;-78
2024/03/15 07:59:51;;;;;;;34.60;24.90;;;;;;;;;;107618;1253;61268;-79
2024/03/15 08:02:17;;;;;;;34.70;23.80;;;;;;;;;;106926;1254;61334;-79
2024/03/15 08:04:47;;;;;;;36.90;24.80;;;;;;;;;;107629;1252;61284;-79
2024/03/15 08:07:14;;;;;;;33.40;22.80;;;;;;;;;;107948;1249;61138;-84
2024/03/15 08:09:40;;;;;;;37.80;23.90;;;;;;;;;;108598;1255;59536;-85
2024/03/15 08:12:07;;;;;;;46.60;23.80;;;;;;;;;;108082;1252;60173;-79
2024/03/15 08:14:36;;;;;;;35.90;23.10;;;;;;;;;;107874;1251;61222;-84
2024/03/15 08:17:04;;;;;;;28.40;21.60;;;;;;;;;;107728;1250;59838;-79
2024/03/15 08:19:31;;;;;;;38.90;20.80;;;;;;;;;;106960;1254;60103;-78
2024/03/15 08:21:59;;;;;;;38.10;21.80;;;;;;;;;;107975;1251;60995;-78
2024/03/15 08:24:27;;;;;;;29.20;21.10;;;;;;;;;;107081;1250;63084;-83
2024/03/15 08:26:53;;;;;;;33.40;20.50;;;;;;;;;;107866;1254;59118;-79
2024/03/15 08:29:21;;;;;;;32.70;22.40;;;;;;;;;;108598;1250;59294;-84
2024/03/15 08:31:47;;;;;;;30.90;21.10;;;;;;;;;;109418;1251;59201;-79
2024/03/15 08:34:14;;;;;;;42.10;20.90;;;;;;;;;;109502;1250;59274;-85
2024/03/15 08:36:40;;;;;;;27.30;20.20;;;;;;;;;;109411;1253;58985;-85
2024/03/15 08:39:12;;;;;;;33.00;20.30;;;;;;;;;;109552;1250;58962;-85
2024/03/15 08:41:39;;;;;;;23.30;18.40;;;;;;;;;;107616;1256;61120;-85
2024/03/15 08:44:07;;;;;;;29.80;17.80;;;;;;;;;;107717;1252;63201;-84
2024/03/15 08:46:35;;;;;;;25.40;19.20;;;;;;;;;;107559;1249;59154;-79
2024/03/15 08:49:02;;;;;;;25.10;18.20;;;;;;;;;;107694;1250;61160;-85
2024/03/15 08:51:28;;;;;;;25.40;20.30;;;;;;;;;;107582;1251;61238;-79
2024/03/15 08:53:55;;;;;;;24.20;18.50;;;;;;;;;;107713;1254;61413;-86
2024/03/15 08:56:24;;;;;;;42.00;27.30;;;;;;;;;;107479;1254;61285;-79
2024/03/15 08:58:51;;;;;;;20.90;16.10;;;;;;;;;;107515;1253;62312;-85
2024/03/15 09:01:20;;;;;;;22.90;15.90;;;;;;;;;;107527;1252;60702;-79
2024/03/15 09:03:48;;;;;;;48.60;40.70;;;;;;;;;;107602;1249;60819;-79
2024/03/15 09:06:16;;;;;;;30.40;20.30;;;;;;;;;;107853;1254;60151;-79
2024/03/15 09:08:43;;;;;;;47.00;36.50;;;;;;;;;;107932;1254;61241;-79
2024/03/15 09:11:11;;;;;;;22.30;16.70;;;;;;;;;;107547;1250;61238;-85
2024/03/15 09:13:37;;;;;;;42.60;25.20;;;;;;;;;;107685;1254;61231;-79
2024/03/15 09:16:06;;;;;;;31.00;20.10;;;;;;;;;;107668;1252;59483;-84
2024/03/15 09:18:33;;;;;;;64.00;53.10;;;;;;;;;;107646;1254;61227;-78
2024/03/15 09:20:59;;;;;;;33.50;25.00;;;;;;;;;;107543;1251;61174;-78
2024/03/15 09:23:26;;;;;;;28.50;19.00;;;;;;;;;;107892;1251;61136;-79
2024/03/15 09:25:53;;;;;;;24.90;17.20;;;;;;;;;;107539;1253;61264;-84
2024/03/15 09:28:19;;;;;;;24.10;15.90;;;;;;;;;;107676;1252;59761;-84
2024/03/15 09:33:15;;;;;;;23.50;15.80;;;;;;;;;;107628;1250;61270;-84
2024/03/15 09:35:46;;;;;;;19.30;13.80;;;;;;;;;;107583;1254;61245;-78
2024/03/15 09:38:12;;;;;;;23.50;15.50;;;;;;;;;;107581;1254;60811;-84
2024/03/15 09:40:39;;;;;;;31.40;17.70;;;;;;;;;;107435;1251;61325;-84
2024/03/15 09:43:08;;;;;;;32.50;19.50;;;;;;;;;;107674;1250;61166;-84
2024/03/15 09:45:35;;;;;;;29.20;15.20;;;;;;;;;;107394;1255;61224;-79
2024/03/15 09:48:02;;;;;;;26.70;16.10;;;;;;;;;;106881;1254;61123;-79
2024/03/15 09:50:32;;;;;;;27.40;15.70;;;;;;;;;;107004;1254;61970;-78
2024/03/15 09:52:59;;;;;;;22.50;14.00;;;;;;;;;;106876;1257;61430;-78
2024/03/15 09:55:27;;;;;;;21.50;13.40;;;;;;;;;;107472;1251;60765;-85
2024/03/15 09:57:53;;;;;;;18.80;11.70;;;;;;;;;;107930;1251;61228;-84
2024/03/15 10:00:22;;;;;;;18.90;12.40;;;;;;;;;;107617;1256;59365;-79
2024/03/15 10:02:49;;;;;;;21.70;13.50;;;;;;;;;;107667;1253;61667;-78
2024/03/15 10:05:16;;;;;;;20.50;11.50;;;;;;;;;;106739;1252;61330;-85
2024/03/15 10:07:43;;;;;;;24.70;12.80;;;;;;;;;;107884;1249;61229;-79
2024/03/15 10:10:13;;;;;;;28.70;13.00;;;;;;;;;;109500;1251;59159;-79
2024/03/15 10:12:46;;;;;;;20.30;13.20;;;;;;;;;;109495;1251;59213;-84
2024/03/15 10:15:16;;;;;;;16.40;10.90;;;;;;;;;;109574;1251;61869;-84
2024/03/15 10:17:48;;;;;;;25.30;11.70;;;;;;;;;;109468;1251;59261;-79
2024/03/15 10:20:18;;;;;;;15.30;9.90;;;;;;;;;;109455;1251;60743;-84
2024/03/15 10:22:45;;;;;;;16.00;10.50;;;;;;;;;;109445;1251;59058;-85
2024/03/15 10:25:15;;;;;;;16.80;9.40;;;;;;;;;;109431;1251;59285;-85
2024/03/15 10:27:44;;;;;;;16.60;9.40;;;;;;;;;;109470;1254;61896;-84
2024/03/15 10:30:15;;;;;;;15.40;9.30;;;;;;;;;;109491;1251;59287;-84
2024/03/15 10:32:41;;;;;;;18.20;11.20;;;;;;;;;;109417;1251;60160;-84
2024/03/15 10:35:12;;;;;;;12.50;8.90;;;;;;;;;;109385;1252;59218;-84
2024/03/15 10:37:39;;;;;;;14.00;9.50;;;;;;;;;;109478;1251;59393;-84
2024/03/15 10:40:07;;;;;;;20.80;11.50;;;;;;;;;;108997;1251;60718;-84
2024/03/15 10:42:33;;;;;;;31.10;19.00;;;;;;;;;;107644;1251;61376;-79
2024/03/15 10:44:59;;;;;;;19.80;11.10;;;;;;;;;;106878;1254;61161;-84
2024/03/15 10:47:26;;;;;;;14.80;8.30;;;;;;;;;;107533;1253;61273;-79
2024/03/15 10:49:54;;;;;;;20.30;11.70;;;;;;;;;;107490;1251;59771;-84
2024/03/15 10:52:22;;;;;;;11.80;8.50;;;;;;;;;;107430;1251;61956;-78
2024/03/15 10:54:50;;;;;;;14.90;10.10;;;;;;;;;;107381;1254;61257;-78
2024/03/15 10:57:17;;;;;;;13.40;8.80;;;;;;;;;;106599;1251;61383;-84
2024/03/15 10:59:44;;;;;;;13.70;9.20;;;;;;;;;;107430;1254;61090;-78
2024/03/15 11:02:10;;;;;;;13.90;9.30;;;;;;;;;;106776;1251;61216;-84
2024/03/15 11:04:37;;;;;;;17.30;8.60;;;;;;;;;;107280;1251;61309;-84
2024/03/15 11:07:03;;;;;;;12.70;8.00;;;;;;;;;;107396;1251;61232;-84
2024/03/15 11:09:33;;;;;;;15.80;8.80;;;;;;;;;;107362;1251;61216;-85
2024/03/15 11:12:01;;;;;;;14.00;8.90;;;;;;;;;;107277;1251;61208;-78
2024/03/15 11:14:31;;;;;;;14.10;8.80;;;;;;;;;;106712;1254;61062;-78
2024/03/15 11:17:00;;;;;;;13.90;9.40;;;;;;;;;;106652;1253;61893;-85
2024/03/15 11:19:26;;;;;;;12.20;8.40;;;;;;;;;;107311;1251;61075;-84
2024/03/15 11:22:05;;;;;;;12.80;9.20;;;;;;;;;;107400;1253;61144;-85
2024/03/15 11:24:41;;;;;;;11.60;8.00;;;;;;;;;;107253;1250;61236;-84
2024/03/15 11:27:16;;;;;;;17.20;7.90;;;;;;;;;;107463;1251;61120;-79
2024/03/15 11:29:48;;;;;;;12.40;8.10;;;;;;;;;;106922;1252;61142;-78
2024/03/15 11:32:15;;;;;;;12.10;7.60;;;;;;;;;;107690;1251;61243;-84
2024/03/15 11:34:41;;;;;;;18.30;8.10;;;;;;;;;;107504;1254;61408;-84
2024/03/15 11:37:09;;;;;;;12.70;9.00;;;;;;;;;;107325;1253;61933;-78
2024/03/15 11:39:36;;;;;;;13.10;7.90;;;;;;;;;;107265;1251;61229;-84
2024/03/15 11:42:02;;;;;;;12.40;7.90;;;;;;;;;;107370;1254;61337;-84
2024/03/15 11:44:29;;;;;;;17.50;9.10;;;;;;;;;;107219;1251;61178;-84
2024/03/15 11:46:55;;;;;;;20.50;9.50;;;;;;;;;;107336;1251;61290;-79
2024/03/15 11:49:21;;;;;;;11.80;7.00;;;;;;;;;;106616;1251;61251;-80
2024/03/15 11:51:54;;;;;;;16.20;9.40;;;;;;;;;;107577;1254;61248;-84
2024/03/15 11:54:21;;;;;;;13.20;7.70;;;;;;;;;;106682;1251;62602;-84
2024/03/15 11:56:47;;;;;;;9.60;7.00;;;;;;;;;;107320;1254;60343;-84
2024/03/15 11:59:13;;;;;;;12.30;7.70;;;;;;;;;;107282;1251;61170;-84
2024/03/15 12:01:40;;;;;;;13.70;8.80;;;;;;;;;;107636;1250;61126;-79
2024/03/15 12:04:06;;;;;;;10.50;7.20;;;;;;;;;;106785;1254;61161;-78
2024/03/15 12:06:36;;;;;;;11.10;7.60;;;;;;;;;;107333;1251;60008;-84
2024/03/15 12:09:03;;;;;;;12.70;7.30;;;;;;;;;;107311;1250;61251;-84
2024/03/15 12:11:34;;;;;;;12.30;9.40;;;;;;;;;;107563;1251;59672;-79
2024/03/15 12:14:01;;;;;;;11.40;8.20;;;;;;;;;;108036;1251;62401;-83
2024/03/15 12:16:27;;;;;;;9.20;6.20;;;;;;;;;;107395;1254;61924;-84
2024/03/15 12:18:54;;;;;;;13.90;5.80;;;;;;;;;;108789;1252;61346;-84
2024/03/15 12:21:20;;;;;;;9.20;6.40;;;;;;;;;;107353;1251;61331;-78
2024/03/15 12:23:47;;;;;;;8.10;5.90;;;;;;;;;;107387;1251;61252;-86
2024/03/15 12:26:13;;;;;;;12.90;5.70;;;;;;;;;;107281;1249;59973;-84
2024/03/15 12:28:40;;;;;;;20.40;7.00;;;;;;;;;;107379;1251;61205;-79
2024/03/15 12:31:06;;;;;;;52.00;9.10;;;;;;;;;;106833;1251;62355;-79
2024/03/15 12:33:32;;;;;;;14.10;5.80;;;;;;;;;;106801;1257;59235;-84
2024/03/15 12:36:01;;;;;;;8.30;5.80;;;;;;;;;;107479;1251;61270;-84
2024/03/15 12:38:28;;;;;;;13.20;5.80;;;;;;;;;;107661;1250;61213;-84
2024/03/15 12:40:56;;;;;;;9.20;5.60;;;;;;;;;;107515;1250;60574;-84
2024/03/15 12:43:23;;;;;;;10.40;6.00;;;;;;;;;;107643;1251;63054;-84
2024/03/15 12:45:49;;;;;;;8.90;5.00;;;;;;;;;;107618;1251;61475;-84
2024/03/15 12:48:16;;;;;;;14.80;6.80;;;;;;;;;;107523;1253;61276;-79
2024/03/15 12:50:43;;;;;;;11.20;6.60;;;;;;;;;;107719;1250;63211;-79
2024/03/15 12:53:11;;;;;;;8.40;5.60;;;;;;;;;;107286;1251;61256;-80
2024/03/15 12:55:38;;;;;;;9.10;6.30;;;;;;;;;;109625;1250;61457;-79
2024/03/15 12:58:04;;;;;;;15.50;8.20;;;;;;;;;;109610;1250;59722;-84
2024/03/15 13:00:31;;;;;;;25.30;10.70;;;;;;;;;;109680;1249;59009;-79
2024/03/15 13:02:57;;;;;;;15.00;9.80;;;;;;;;;;109575;1250;58931;-79
2024/03/15 13:05:23;;;;;;;10.80;7.10;;;;;;;;;;109605;1251;59089;-85
2024/03/15 13:07:51;;;;;;;10.70;7.10;;;;;;;;;;109696;1250;58964;-84
2024/03/15 13:10:17;;;;;;;13.30;8.50;;;;;;;;;;109651;1249;59008;-85
2024/03/15 13:12:49;;;;;;;13.20;8.40;;;;;;;;;;109607;1248;58898;-84
2024/03/15 13:15:15;;;;;;;15.90;9.50;;;;;;;;;;109694;1250;58831;-79
2024/03/15 13:17:42;;;;;;;14.00;10.00;;;;;;;;;;109570;1249;58983;-84
2024/03/15 13:20:15;;;;;;;12.80;9.60;;;;;;;;;;109569;1249;62536;-84
2024/03/15 13:22:44;;;;;;;14.50;10.20;;;;;;;;;;109547;1249;59143;-84
2024/03/15 13:25:11;;;;;;;16.30;10.90;;;;;;;;;;109554;1249;59179;-84
2024/03/15 13:27:37;;;;;;;16.00;10.30;;;;;;;;;;109602;1248;59262;-84
2024/03/15 13:30:15;;;;;;;17.90;11.00;;;;;;;;;;109713;1248;59246;-79
2024/03/15 13:32:41;;;;;;;15.00;10.20;;;;;;;;;;109482;1254;64140;-85
2024/03/15 13:35:15;;;;;;;25.80;15.50;;;;;;;;;;109550;1248;59649;-80
2024/03/15 13:37:44;;;;;;;19.20;11.80;;;;;;;;;;109625;1248;58985;-84
2024/03/15 13:40:22;;;;;;;20.00;12.00;;;;;;;;;;109668;1249;59197;-76
2024/03/15 13:42:48;;;;;;;14.80;10.90;;;;;;;;;;109673;1249;58880;-72
2024/03/15 13:45:15;;;;;;;17.80;12.80;;;;;;;;;;109555;1250;60846;-76
2024/03/15 13:47:42;;;;;;;19.60;12.60;;;;;;;;;;109498;1249;58934;-78
2024/03/15 13:50:15;;;;;;;15.10;11.00;;;;;;;;;;109595;1253;59032;-82
2024/03/15 13:52:43;;;;;;;25.70;15.30;;;;;;;;;;109606;1251;60144;-80
2024/03/15 13:55:11;;;;;;;25.40;17.50;;;;;;;;;;109633;1248;59254;-75
2024/03/15 13:57:38;;;;;;;18.70;11.90;;;;;;;;;;109543;1250;60709;-81
2024/03/15 14:00:56;;;;;;;46.30;33.70;;;;;;;;;;109595;1250;58903;-79
2024/03/15 14:02:55;;;;;;;36.20;21.20;;;;;;;;;;109366;1249;60731;-79
2024/03/15 14:05:22;;;;;;;20.00;12.10;;;;;;;;;;109638;1250;59093;-80
2024/03/15 14:07:49;;;;;;;29.10;12.60;;;;;;;;;;109604;1249;59078;-77
2024/03/15 14:10:18;;;;;;;19.70;11.70;;;;;;;;;;109560;1251;62455;-78
2024/03/15 14:12:44;;;;;;;19.50;12.20;;;;;;;;;;109542;1250;59121;-82
2024/03/15 14:15:11;;;;;;;21.20;13.10;;;;;;;;;;109524;1250;59130;-81